sensor_id;sensor_type;location;lat;lon;timestamp;pressure;altitude;pressure_sealevel;temperature;humidity
57894;BME280;43710;47.460;19.034;2023-01-30T05:01:40;100868.34;;;0.23;74.57
57894;BME280;43710;47.460;19.034;2023-01-30T05:04:43;100868.34;;;0.23;74.57
57894;BME280;43710;47.460;19.034;2023-01-30T05:07:45;100856.41;;;-0.41;81.77
57894;BME280;43710;47.460;19.034;2023-01-30T05:10:47;100851.00;;;-0.67;77.91
57894;BME280;43710;47.460;19.034;2023-01-30T05:13:50;100848.09;;;-0.38;71.72
57894;BME280;43710;47.460;19.034;2023-01-30T05:16:53;100841.66;;;-0.35;70.87
57894;BME280;43710;47.460;19.034;2023-01-30T05:19:55;100850.09;;;-0.47;81.93
57894;BME280;43710;47.460;19.034;2023-01-30T05:22:57;100845.81;;;-0.54;82.08
57894;BME280;43710;47.460;19.034;2023-01-30T05:26:00;100862.03;;;-0.03;89.54
57894;BME280;43710;47.460;19.034;2023-01-30T05:29:03;100845.31;;;-0.30;72.47
57894;BME280;43710;47.460;19.034;2023-01-30T05:32:05;100844.19;;;0.06;78.09
57894;BME280;43710;47.460;19.034;2023-01-30T05:35:08;100843.78;;;0.09;70.86
57894;BME280;43710;47.460;19.034;2023-01-30T05:38:10;100841.09;;;-0.17;70.73
57894;BME280;43710;47.460;19.034;2023-01-30T05:41:14;100835.78;;;-0.24;72.07
57894;BME280;43710;47.460;19.034;2023-01-30T05:44:16;100840.13;;;-0.10;99.87
57894;BME280;43710;47.460;19.034;2023-01-30T05:47:19;100835.78;;;-0.31;86.97
57894;BME280;43710;47.460;19.034;2023-01-30T05:50:21;100836.47;;;-0.09;73.48
57894;BME280;43710;47.460;19.034;2023-01-30T05:53:26;100834.22;;;-0.12;76.66
57894;BME280;43710;47.460;19.034;2023-01-30T05:56:29;100846.81;;;0.06;70.76
57894;BME280;43710;47.460;19.034;2023-01-30T05:59:34;100841.13;;;-0.04;70.05
57894;BME280;43710;47.460;19.034;2023-01-30T06:02:37;100839.69;;;-0.13;77.27
57894;BME280;43710;47.460;19.034;2023-01-30T06:05:40;100840.94;;;-0.09;72.18
57894;BME280;43710;47.460;19.034;2023-01-30T06:08:42;100832.63;;;-0.06;73.73
57894;BME280;43710;47.460;19.034;2023-01-30T06:11:45;100841.94;;;-0.04;70.67
57894;BME280;43710;47.460;19.034;2023-01-30T06:14:47;100837.31;;;0.05;70.80
57894;BME280;43710;47.460;19.034;2023-01-30T06:17:49;100834.22;;;-0.12;71.19
57894;BME280;43710;47.460;19.034;2023-01-30T06:20:52;100843.59;;;0.11;89.03
57894;BME280;43710;47.460;19.034;2023-01-30T06:23:55;100839.16;;;0.11;72.44
57894;BME280;43710;47.460;19.034;2023-01-30T06:26:58;100839.75;;;0.07;76.35
57894;BME280;43710;47.460;19.034;2023-01-30T06:30:01;100842.53;;;-0.15;71.71
57894;BME280;43710;47.460;19.034;2023-01-30T06:33:03;100840.31;;;-0.11;74.09
57894;BME280;43710;47.460;19.034;2023-01-30T06:36:06;100844.31;;;-0.22;77.43
57894;BME280;43710;47.460;19.034;2023-01-30T06:39:08;100841.09;;;-0.11;76.76
57894;BME280;43710;47.460;19.034;2023-01-30T06:42:11;100833.06;;;0.17;97.68
57894;BME280;43710;47.460;19.034;2023-01-30T06:45:14;100828.41;;;0.33;92.94
57894;BME280;43710;47.460;19.034;2023-01-30T06:48:18;100820.09;;;0.22;84.32
57894;BME280;43710;47.460;19.034;2023-01-30T06:51:20;100813.63;;;0.65;91.02
57894;BME280;43710;47.460;19.034;2023-01-30T06:54:23;100816.66;;;0.55;74.90
57894;BME280;43710;47.460;19.034;2023-01-30T06:57:25;100820.72;;;0.51;89.14
57894;BME280;43710;47.460;19.034;2023-01-30T07:00:27;100828.25;;;0.47;77.53
57894;BME280;43710;47.460;19.034;2023-01-30T07:03:30;100829.03;;;0.48;78.15
57894;BME280;43710;47.460;19.034;2023-01-30T07:06:32;100816.87;;;0.54;78.10
57894;BME280;43710;47.460;19.034;2023-01-30T07:09:34;100808.75;;;0.68;75.16
57894;BME280;43710;47.460;19.034;2023-01-30T07:12:37;100808.75;;;0.62;72.89
57894;BME280;43710;47.460;19.034;2023-01-30T07:15:41;100808.56;;;0.70;71.22
57894;BME280;43710;47.460;19.034;2023-01-30T07:18:44;100807.94;;;0.61;74.51
57894;BME280;43710;47.460;19.034;2023-01-30T07:21:46;100809.78;;;0.61;71.88
57894;BME280;43710;47.460;19.034;2023-01-30T07:24:48;100810.16;;;0.64;71.93
57894;BME280;43710;47.460;19.034;2023-01-30T07:27:52;100818.06;;;0.78;76.98
57894;BME280;43710;47.460;19.034;2023-01-30T07:30:58;100811.16;;;0.90;79.09
57894;BME280;43710;47.460;19.034;2023-01-30T07:34:03;100809.31;;;0.97;74.48
57894;BME280;43710;47.460;19.034;2023-01-30T07:37:07;100804.44;;;1.07;77.50
57894;BME280;43710;47.460;19.034;2023-01-30T07:40:10;100802.41;;;1.09;72.57
57894;BME280;43710;47.460;19.034;2023-01-30T07:43:13;100795.69;;;1.13;72.42
57894;BME280;43710;47.460;19.034;2023-01-30T07:46:15;100808.62;;;1.28;70.16
57894;BME280;43710;47.460;19.034;2023-01-30T07:49:18;100797.50;;;1.20;77.19
57894;BME280;43710;47.460;19.034;2023-01-30T07:52:20;100793.59;;;1.22;72.59
57894;BME280;43710;47.460;19.034;2023-01-30T07:55:22;100792.78;;;1.28;70.03
57894;BME280;43710;47.460;19.034;2023-01-30T07:58:24;100792.75;;;1.35;73.12
57894;BME280;43710;47.460;19.034;2023-01-30T08:01:27;100784.66;;;1.30;70.32
57894;BME280;43710;47.460;19.034;2023-01-30T08:04:29;100790.78;;;1.24;71.30
57894;BME280;43710;47.460;19.034;2023-01-30T08:07:31;100786.88;;;1.33;78.78
57894;BME280;43710;47.460;19.034;2023-01-30T08:10:34;100788.22;;;1.49;70.92
57894;BME280;43710;47.460;19.034;2023-01-30T08:13:38;100775.63;;;1.51;69.38
57894;BME280;43710;47.460;19.034;2023-01-30T08:16:41;100770.97;;;1.46;71.99
57894;BME280;43710;47.460;19.034;2023-01-30T08:19:43;100758.06;;;1.70;75.31
57894;BME280;43710;47.460;19.034;2023-01-30T08:22:45;100737.78;;;1.88;88.17
57894;BME280;43710;47.460;19.034;2023-01-30T08:25:47;100721.16;;;1.81;94.88
57894;BME280;43710;47.460;19.034;2023-01-30T08:28:50;100713.06;;;1.76;84.11
57894;BME280;43710;47.460;19.034;2023-01-30T08:31:56;100723.66;;;1.76;74.30
57894;BME280;43710;47.460;19.034;2023-01-30T08:34:59;100719.09;;;1.90;86.80
57894;BME280;43710;47.460;19.034;2023-01-30T08:38:01;100723.66;;;1.76;71.87
57894;BME280;43710;47.460;19.034;2023-01-30T08:41:06;100719.94;;;1.84;75.27
57894;BME280;43710;47.460;19.034;2023-01-30T08:44:10;100710.91;;;1.92;81.94
57894;BME280;43710;47.460;19.034;2023-01-30T08:47:12;100716.88;;;1.87;79.72
57894;BME280;43710;47.460;19.034;2023-01-30T08:50:14;100713.78;;;1.90;71.41
57894;BME280;43710;47.460;19.034;2023-01-30T08:53:18;100711.56;;;1.87;69.99
57894;BME280;43710;47.460;19.034;2023-01-30T08:56:20;100714.81;;;1.89;80.58
57894;BME280;43710;47.460;19.034;2023-01-30T08:59:23;100710.25;;;2.03;69.69
57894;BME280;43710;47.460;19.034;2023-01-30T09:02:25;100711.37;;;2.14;69.03
57894;BME280;43710;47.460;19.034;2023-01-30T09:05:29;100711.09;;;2.22;70.35
57894;BME280;43710;47.460;19.034;2023-01-30T09:08:31;100707.63;;;2.21;69.72
57894;BME280;43710;47.460;19.034;2023-01-30T09:11:34;100698.94;;;2.39;80.96
57894;BME280;43710;47.460;19.034;2023-01-30T09:14:36;100713.91;;;2.52;72.71
57894;BME280;43710;47.460;19.034;2023-01-30T09:17:38;100704.38;;;2.44;71.11
57894;BME280;43710;47.460;19.034;2023-01-30T09:20:41;100697.47;;;2.43;71.27
57894;BME280;43710;47.460;19.034;2023-01-30T09:23:43;100681.75;;;2.48;71.46
57894;BME280;43710;47.460;19.034;2023-01-30T09:26:47;100688.50;;;2.44;71.01
57894;BME280;43710;47.460;19.034;2023-01-30T09:29:50;100684.63;;;2.47;70.18
57894;BME280;43710;47.460;19.034;2023-01-30T09:32:52;100682.34;;;2.50;71.99
57894;BME280;43710;47.460;19.034;2023-01-30T09:35:55;100681.53;;;3.35;100.00
57894;BME280;43710;47.460;19.034;2023-01-30T09:38:57;100684.81;;;3.19;72.46
57894;BME280;43710;47.460;19.034;2023-01-30T09:45:53;100658.44;;;2.94;70.58
57894;BME280;43710;47.460;19.034;2023-01-30T09:52:28;100642.97;;;2.91;69.82
57894;BME280;43710;47.460;19.034;2023-01-30T09:55:36;100643.34;;;2.94;69.35
57894;BME280;43710;47.460;19.034;2023-01-30T09:58:59;100641.06;;;2.98;69.68
57894;BME280;43710;47.460;19.034;2023-01-30T10:05:11;100623.72;;;2.83;70.83
57894;BME280;43710;47.460;19.034;2023-01-30T10:18:12;100590.09;;;3.02;71.26
57894;BME280;43710;47.460;19.034;2023-01-30T10:21:36;100589.44;;;3.19;73.25
57894;BME280;43710;47.460;19.034;2023-01-30T10:28:19;100579.00;;;3.36;73.11
57894;BME280;43710;47.460;19.034;2023-01-30T10:31:27;100569.25;;;3.71;87.76
57894;BME280;43710;47.460;19.034;2023-01-30T10:34:35;100559.47;;;3.72;71.64
57894;BME280;43710;47.460;19.034;2023-01-30T10:37:47;100560.84;;;3.98;72.83
57894;BME280;43710;47.460;19.034;2023-01-30T10:44:23;100536.53;;;3.78;73.90
57894;BME280;43710;47.460;19.034;2023-01-30T10:47:44;100534.09;;;3.76;69.91
57894;BME280;43710;47.460;19.034;2023-01-30T10:50:58;100515.56;;;3.64;71.33
57894;BME280;43710;47.460;19.034;2023-01-30T10:54:11;100522.09;;;3.73;70.94
57894;BME280;43710;47.460;19.034;2023-01-30T11:04:02;100487.25;;;4.05;70.15
57894;BME280;43710;47.460;19.034;2023-01-30T11:07:05;100477.56;;;3.87;70.58
57894;BME280;43710;47.460;19.034;2023-01-30T11:10:25;100474.72;;;3.89;69.28
57894;BME280;43710;47.460;19.034;2023-01-30T11:13:31;100468.94;;;3.92;69.58
57894;BME280;43710;47.460;19.034;2023-01-30T11:19:53;100434.41;;;4.04;76.30
57894;BME280;43710;47.460;19.034;2023-01-30T11:23:05;100447.66;;;4.04;69.84
57894;BME280;43710;47.460;19.034;2023-01-30T11:26:43;100439.97;;;4.02;74.07
57894;BME280;43710;47.460;19.034;2023-01-30T11:30:02;100429.56;;;4.00;71.17
57894;BME280;43710;47.460;19.034;2023-01-30T11:39:27;100407.22;;;3.96;72.88
57894;BME280;43710;47.460;19.034;2023-01-30T11:42:30;100397.84;;;4.06;70.96
57894;BME280;43710;47.460;19.034;2023-01-30T11:45:47;100398.44;;;4.08;76.83
57894;BME280;43710;47.460;19.034;2023-01-30T11:48:53;100398.62;;;4.18;72.27
57894;BME280;43710;47.460;19.034;2023-01-30T11:52:24;100380.06;;;4.18;72.74
57894;BME280;43710;47.460;19.034;2023-01-30T11:55:33;100370.72;;;4.15;72.07
57894;BME280;43710;47.460;19.034;2023-01-30T11:58:38;100376.59;;;4.17;77.19
57894;BME280;43710;47.460;19.034;2023-01-30T12:01:42;100375.72;;;4.29;70.34
57894;BME280;43710;47.460;19.034;2023-01-30T12:04:46;100369.00;;;4.09;71.27
57894;BME280;43710;47.460;19.034;2023-01-30T12:07:51;100363.22;;;4.12;71.18
57894;BME280;43710;47.460;19.034;2023-01-30T12:10:56;100361.50;;;4.06;71.65
57894;BME280;43710;47.460;19.034;2023-01-30T12:17:45;100359.19;;;4.10;72.33
57894;BME280;43710;47.460;19.034;2023-01-30T12:24:40;100347.69;;;4.04;70.37
57894;BME280;43710;47.460;19.034;2023-01-30T12:30:57;100322.03;;;4.10;69.91
57894;BME280;43710;47.460;19.034;2023-01-30T12:34:03;100303.91;;;4.35;74.96
57894;BME280;43710;47.460;19.034;2023-01-30T12:40:32;100287.09;;;4.63;74.57
57894;BME280;43710;47.460;19.034;2023-01-30T12:50:32;100291.75;;;4.73;74.81
57894;BME280;43710;47.460;19.034;2023-01-30T12:57:01;100302.06;;;4.69;70.26
57894;BME280;43710;47.460;19.034;2023-01-30T13:07:46;100282.66;;;4.69;83.02
57894;BME280;43710;47.460;19.034;2023-01-30T13:11:07;100272.94;;;4.75;78.15
57894;BME280;43710;47.460;19.034;2023-01-30T13:20:54;100252.12;;;4.88;76.37
57894;BME280;43710;47.460;19.034;2023-01-30T13:24:05;100247.97;;;4.76;76.44
57894;BME280;43710;47.460;19.034;2023-01-30T13:27:16;100254.16;;;4.81;72.72
57894;BME280;43710;47.460;19.034;2023-01-30T13:30:21;100238.09;;;4.71;73.76
57894;BME280;43710;47.460;19.034;2023-01-30T13:33:30;100240.75;;;4.93;70.85
57894;BME280;43710;47.460;19.034;2023-01-30T13:37:07;100248.28;;;4.79;67.63
57894;BME280;43710;47.460;19.034;2023-01-30T13:40:18;100239.47;;;4.74;66.17
57894;BME280;43710;47.460;19.034;2023-01-30T13:43:30;100243.56;;;4.64;68.50
57894;BME280;43710;47.460;19.034;2023-01-30T13:46:36;100237.13;;;4.77;66.99
57894;BME280;43710;47.460;19.034;2023-01-30T13:49:58;100230.84;;;4.66;68.76
57894;BME280;43710;47.460;19.034;2023-01-30T13:53:17;100241.47;;;4.66;65.44
57894;BME280;43710;47.460;19.034;2023-01-30T13:56:44;100236.97;;;4.67;68.65
57894;BME280;43710;47.460;19.034;2023-01-30T14:00:39;100235.19;;;4.72;66.66
57894;BME280;43710;47.460;19.034;2023-01-30T14:03:41;100205.63;;;5.30;79.14
57894;BME280;43710;47.460;19.034;2023-01-30T14:06:43;100235.62;;;4.86;66.37
57894;BME280;43710;47.460;19.034;2023-01-30T14:13:04;100214.09;;;5.05;76.38
57894;BME280;43710;47.460;19.034;2023-01-30T14:16:07;100218.03;;;4.80;65.49
57894;BME280;43710;47.460;19.034;2023-01-30T14:22:56;100216.44;;;4.62;65.84
57894;BME280;43710;47.460;19.034;2023-01-30T14:26:00;100213.63;;;4.69;67.34
57894;BME280;43710;47.460;19.034;2023-01-30T14:29:03;100216.28;;;4.69;67.34
57894;BME280;43710;47.460;19.034;2023-01-30T14:35:19;100228.22;;;4.88;68.34
57894;BME280;43710;47.460;19.034;2023-01-30T14:38:23;100229.94;;;4.78;66.13
57894;BME280;43710;47.460;19.034;2023-01-30T14:41:27;100231.91;;;4.65;68.13
57894;BME280;43710;47.460;19.034;2023-01-30T14:44:53;100221.34;;;4.70;69.20
57894;BME280;43710;47.460;19.034;2023-01-30T14:54:47;100230.03;;;4.66;69.45
57894;BME280;43710;47.460;19.034;2023-01-30T14:57:58;100225.53;;;4.66;75.70
57894;BME280;43710;47.460;19.034;2023-01-30T15:01:02;100219.56;;;4.76;69.10
57894;BME280;43710;47.460;19.034;2023-01-30T15:04:04;100212.81;;;4.68;71.91
57894;BME280;43710;47.460;19.034;2023-01-30T15:11:03;100229.19;;;4.60;71.33
57894;BME280;43710;47.460;19.034;2023-01-30T15:14:15;100225.97;;;4.58;76.30
57894;BME280;43710;47.460;19.034;2023-01-30T15:17:34;100230.66;;;4.51;70.74
57894;BME280;43710;47.460;19.034;2023-01-30T15:20:49;100226.72;;;4.54;69.28
57894;BME280;43710;47.460;19.034;2023-01-30T15:27:50;100230.22;;;4.59;71.88
57894;BME280;43710;47.460;19.034;2023-01-30T15:30:58;100239.47;;;4.57;74.71
57894;BME280;43710;47.460;19.034;2023-01-30T15:34:18;100229.19;;;4.60;74.44
57894;BME280;43710;47.460;19.034;2023-01-30T15:37:40;100232.06;;;4.59;70.97
57894;BME280;43710;47.460;19.034;2023-01-30T15:40:48;100221.22;;;4.60;81.37
57894;BME280;43710;47.460;19.034;2023-01-30T15:50:16;100245.38;;;4.42;71.55
57894;BME280;43710;47.460;19.034;2023-01-30T15:53:33;100249.75;;;4.53;78.62
57894;BME280;43710;47.460;19.034;2023-01-30T15:56:38;100245.19;;;4.48;72.37
57894;BME280;43710;47.460;19.034;2023-01-30T15:59:41;100252.03;;;4.44;73.96
57894;BME280;43710;47.460;19.034;2023-01-30T16:02:43;100246.81;;;4.33;77.42
57894;BME280;43710;47.460;19.034;2023-01-30T16:05:51;100259.12;;;4.39;93.81
57894;BME280;43710;47.460;19.034;2023-01-30T16:08:59;100259.28;;;4.49;86.10
57894;BME280;43710;47.460;19.034;2023-01-30T16:12:02;100262.56;;;4.22;78.85
57894;BME280;43710;47.460;19.034;2023-01-30T16:15:04;100260.34;;;4.31;77.67
57894;BME280;43710;47.460;19.034;2023-01-30T16:21:40;100243.25;;;4.10;79.19
57894;BME280;43710;47.460;19.034;2023-01-30T16:24:51;100246.81;;;3.99;82.11
57894;BME280;43710;47.460;19.034;2023-01-30T16:27:54;100250.09;;;4.06;81.58
57894;BME280;43710;47.460;19.034;2023-01-30T16:33:59;100253.63;;;3.95;79.48
57894;BME280;43710;47.460;19.034;2023-01-30T16:37:23;100260.31;;;3.97;79.41
57894;BME280;43710;47.460;19.034;2023-01-30T16:40:41;100269.06;;;3.98;81.25
57894;BME280;43710;47.460;19.034;2023-01-30T16:43:44;100278.31;;;3.95;80.08
57894;BME280;43710;47.460;19.034;2023-01-30T16:46:56;100273.50;;;4.09;83.29
57894;BME280;43710;47.460;19.034;2023-01-30T16:49:59;100276.72;;;4.11;94.75
57894;BME280;43710;47.460;19.034;2023-01-30T16:53:01;100277.19;;;4.08;88.10
57894;BME280;43710;47.460;19.034;2023-01-30T16:56:09;100263.03;;;4.03;90.03
57894;BME280;43710;47.460;19.034;2023-01-30T16:59:28;100274.44;;;4.03;83.96
57894;BME280;43710;47.460;19.034;2023-01-30T17:02:37;100266.44;;;4.15;90.17
57894;BME280;43710;47.460;19.034;2023-01-30T17:05:41;100263.53;;;4.16;99.56
57894;BME280;43710;47.460;19.034;2023-01-30T17:08:46;100260.00;;;4.11;100.00
57894;BME280;43710;47.460;19.034;2023-01-30T17:11:50;100273.97;;;4.06;93.69
57894;BME280;43710;47.460;19.034;2023-01-30T17:18:12;100273.31;;;3.99;92.95
